Time;durP1;ratioP1;P1;durP2;ratioP2;P2;SDS_P1;SDS_P2;PMS_P1;PMS_P2;Temp;Humidity;BMP_temperature;BMP_pressure;BME280_temperature;BME280_humidity;BME280_pressure;Samples;Min_cycle;Max_cycle;Signal;HPM_P1;HPM_P2
2022/02/15 00:02:47;;;;;;;2.63;1.17;;;8.00;93.80;;;;;;9964510;28;20444;-68
2022/02/15 00:07:37;;;;;;;2.45;1.25;;;8.00;94.00;;;;;;9963038;28;20062;-68
2022/02/15 00:12:28;;;;;;;1.85;1.10;;;7.90;93.80;;;;;;9985854;28;20758;-68
2022/02/15 00:17:19;;;;;;;1.33;0.77;;;7.90;93.70;;;;;;9975664;28;20147;-67
2022/02/15 00:22:09;;;;;;;3.40;1.55;;;7.90;93.80;;;;;;9959542;28;20137;-68
2022/02/15 00:27:00;;;;;;;1.83;1.00;;;7.90;93.80;;;;;;9972295;28;20497;-69
2022/02/15 00:31:51;;;;;;;2.20;1.10;;;7.90;93.70;;;;;;9975568;28;20129;-68
2022/02/15 00:36:41;;;;;;;1.92;1.02;;;7.90;93.70;;;;;;9989492;28;20026;-67
2022/02/15 00:41:32;;;;;;;2.85;0.90;;;7.90;93.60;;;;;;9992797;28;20037;-67
2022/02/15 00:46:23;;;;;;;2.05;1.08;;;7.90;93.70;;;;;;9982569;28;20018;-67
2022/02/15 00:51:13;;;;;;;1.77;1.13;;;7.80;93.70;;;;;;9977036;28;20030;-67
2022/02/15 00:56:04;;;;;;;2.10;0.95;;;7.70;93.70;;;;;;9975891;28;20500;-67
2022/02/15 01:00:55;;;;;;;2.30;0.90;;;7.60;93.60;;;;;;9975915;28;20595;-69
2022/02/15 01:05:46;;;;;;;3.65;2.03;;;7.70;93.60;;;;;;9971794;28;20109;-67
2022/02/15 01:10:36;;;;;;;2.63;0.95;;;7.60;93.50;;;;;;9972596;28;20022;-67
2022/02/15 01:15:27;;;;;;;3.10;1.67;;;7.60;93.60;;;;;;9971789;28;20041;-66
2022/02/15 01:20:18;;;;;;;2.97;1.35;;;7.60;93.70;;;;;;9971114;28;20604;-67
2022/02/15 01:25:09;;;;;;;2.38;1.15;;;7.60;93.70;;;;;;9971745;28;20089;-67
2022/02/15 01:29:59;;;;;;;2.50;1.27;;;7.60;93.50;;;;;;9947772;28;20042;-68
2022/02/15 01:34:50;;;;;;;1.55;1.17;;;7.60;93.60;;;;;;9979726;28;20117;-67
2022/02/15 01:39:41;;;;;;;3.25;1.52;;;7.60;93.60;;;;;;9971162;28;20532;-68
2022/02/15 01:44:35;;;;;;;1.42;0.98;;;7.70;93.60;;;;;;9953594;28;20041;-68
2022/02/15 01:49:25;;;;;;;1.58;1.02;;;7.60;93.60;;;;;;9974250;28;20538;-67
2022/02/15 01:54:17;;;;;;;4.07;1.48;;;7.60;93.50;;;;;;9980797;28;20038;-69
2022/02/15 01:59:08;;;;;;;1.48;1.00;;;7.70;93.50;;;;;;9977959;28;20160;-68
2022/02/15 02:03:59;;;;;;;2.75;1.45;;;7.70;93.30;;;;;;9980655;28;20523;-68
2022/02/15 02:08:49;;;;;;;2.42;1.30;;;7.70;93.30;;;;;;9978998;28;20027;-68
2022/02/15 02:13:40;;;;;;;1.63;1.17;;;7.60;93.40;;;;;;9977862;28;20053;-68
2022/02/15 02:18:31;;;;;;;2.95;0.82;;;7.60;93.40;;;;;;9981737;28;20508;-67
2022/02/15 02:23:22;;;;;;;1.98;1.10;;;7.60;93.30;;;;;;9977715;28;20034;-67
2022/02/15 02:28:13;;;;;;;3.10;1.27;;;7.50;93.40;;;;;;9979231;28;20370;-68
2022/02/15 02:33:04;;;;;;;2.35;1.27;;;7.50;93.80;;;;;;9983497;28;20035;-67
2022/02/15 02:37:55;;;;;;;1.88;1.10;;;7.50;93.50;;;;;;9977766;28;20026;-67
2022/02/15 02:42:46;;;;;;;0.88;0.73;;;7.50;93.50;;;;;;9959952;28;20038;-67
2022/02/15 02:47:37;;;;;;;2.35;1.27;;;7.50;93.40;;;;;;9975784;28;20316;-69
2022/02/15 02:52:28;;;;;;;3.50;1.20;;;7.50;93.40;;;;;;9976215;28;20030;-68
2022/02/15 02:57:19;;;;;;;2.05;0.93;;;7.50;93.40;;;;;;9976005;28;20204;-68
2022/02/15 03:02:10;;;;;;;2.00;1.25;;;7.50;93.50;;;;;;9976397;28;20050;-68
2022/02/15 03:07:01;;;;;;;2.10;1.40;;;7.50;93.50;;;;;;9976637;28;20034;-68
2022/02/15 03:11:51;;;;;;;1.92;1.60;;;7.50;93.50;;;;;;9977066;28;20034;-69
2022/02/15 03:16:43;;;;;;;2.60;1.05;;;7.50;93.60;;;;;;9975080;28;20485;-68
2022/02/15 03:21:34;;;;;;;4.05;1.95;;;7.50;93.60;;;;;;9973797;28;20030;-69
2022/02/15 03:26:25;;;;;;;2.70;1.00;;;7.50;93.60;;;;;;9975108;28;20398;-69
2022/02/15 03:31:16;;;;;;;5.78;1.23;;;7.50;93.50;;;;;;9981616;28;20031;-68
2022/02/15 03:36:06;;;;;;;1.52;1.05;;;7.60;93.50;;;;;;9976881;28;20367;-68
2022/02/15 03:46:06;;;;;;;2.25;1.30;;;7.60;93.40;;;;;;9974419;28;20062;-67
2022/02/15 03:50:57;;;;;;;1.80;1.05;;;7.60;93.50;;;;;;9976877;28;20081;-70
2022/02/15 03:55:48;;;;;;;2.53;1.60;;;7.60;93.50;;;;;;9974486;28;20014;-69
2022/02/15 04:00:39;;;;;;;3.22;1.13;;;7.50;93.90;;;;;;9974784;28;20133;-69
2022/02/15 04:05:30;;;;;;;2.50;1.27;;;7.60;93.50;;;;;;9973227;28;20023;-69
2022/02/15 04:10:21;;;;;;;2.15;1.23;;;7.40;93.60;;;;;;9972700;28;20540;-69
2022/02/15 04:15:12;;;;;;;2.00;1.25;;;7.50;93.70;;;;;;9967568;28;20027;-68
2022/02/15 04:20:04;;;;;;;1.58;1.10;;;7.40;93.70;;;;;;9975519;28;20084;-68
2022/02/15 04:24:55;;;;;;;2.45;1.23;;;7.40;93.70;;;;;;9975923;28;20061;-68
2022/02/15 04:29:46;;;;;;;0.88;0.80;;;7.50;93.70;;;;;;9976165;28;20524;-68
2022/02/15 04:34:39;;;;;;;3.42;1.38;;;7.50;93.60;;;;;;9974238;28;20030;-68
2022/02/15 04:39:29;;;;;;;2.05;1.20;;;7.40;93.80;;;;;;9957374;28;20038;-68
2022/02/15 04:44:20;;;;;;;2.45;1.95;;;7.40;93.80;;;;;;9973859;28;20030;-68
2022/02/15 04:49:11;;;;;;;2.33;1.33;;;7.40;93.80;;;;;;9973475;28;20117;-68
2022/02/15 04:54:01;;;;;;;2.35;1.13;;;7.50;93.80;;;;;;9973941;28;20030;-68
2022/02/15 04:58:52;;;;;;;1.98;1.20;;;7.50;93.80;;;;;;9964128;28;20049;-66
2022/02/15 05:03:43;;;;;;;3.08;1.75;;;7.50;93.80;;;;;;9975053;28;20046;-68
2022/02/15 05:08:34;;;;;;;2.65;1.30;;;7.50;93.90;;;;;;9955521;28;20034;-69
2022/02/15 05:13:24;;;;;;;1.75;1.27;;;7.40;93.80;;;;;;9956675;28;20048;-69
2022/02/15 05:18:15;;;;;;;2.97;1.38;;;7.20;93.90;;;;;;9969590;28;20085;-69
2022/02/15 05:23:06;;;;;;;2.53;1.38;;;7.30;94.00;;;;;;9971341;28;20097;-67
2022/02/15 05:27:58;;;;;;;3.03;1.85;;;7.30;94.00;;;;;;9983965;28;20026;-68
2022/02/15 05:32:50;;;;;;;2.25;1.50;;;7.30;94.10;;;;;;9976758;28;20035;-69
2022/02/15 05:37:40;;;;;;;1.40;1.15;;;7.30;94.00;;;;;;9977806;28;20038;-68
2022/02/15 05:42:31;;;;;;;2.50;1.20;;;7.30;94.00;;;;;;9973405;28;20569;-69
2022/02/15 05:47:22;;;;;;;2.85;1.40;;;7.40;94.10;;;;;;9973207;28;20173;-67
2022/02/15 05:52:13;;;;;;;3.75;1.52;;;7.30;94.30;;;;;;9971970;28;20038;-68
2022/02/15 05:57:04;;;;;;;1.85;1.27;;;7.30;94.20;;;;;;9964496;28;20109;-67
2022/02/15 06:01:54;;;;;;;1.83;1.05;;;7.40;94.10;;;;;;9971597;28;20050;-68
2022/02/15 06:06:45;;;;;;;1.67;1.10;;;7.40;94.10;;;;;;9948404;28;20031;-69
2022/02/15 06:11:36;;;;;;;2.45;1.35;;;7.40;94.20;;;;;;9956396;28;20555;-69
2022/02/15 06:16:26;;;;;;;3.67;1.67;;;7.40;94.30;;;;;;9971712;28;20048;-67
2022/02/15 06:21:17;;;;;;;4.00;1.77;;;7.40;94.30;;;;;;9965420;28;20295;-68
2022/02/15 06:26:08;;;;;;;2.58;1.17;;;7.40;94.20;;;;;;9978108;28;20034;-67
2022/02/15 06:30:58;;;;;;;2.63;1.30;;;7.40;94.30;;;;;;9972556;28;20405;-67
2022/02/15 06:35:50;;;;;;;1.75;1.17;;;7.40;94.30;;;;;;9973498;28;20033;-68
2022/02/15 06:40:41;;;;;;;2.28;1.17;;;7.40;94.30;;;;;;9978094;28;20034;-68
2022/02/15 06:45:32;;;;;;;3.58;1.92;;;7.30;94.30;;;;;;9979597;28;20535;-68
2022/02/15 06:50:23;;;;;;;2.30;1.60;;;7.20;94.50;;;;;;9979574;28;20171;-68
2022/02/15 06:55:14;;;;;;;1.80;1.40;;;7.30;94.50;;;;;;9978727;28;20583;-69
2022/02/15 07:00:05;;;;;;;2.28;1.50;;;7.30;94.40;;;;;;9977680;28;20077;-67
2022/02/15 07:04:57;;;;;;;6.82;2.30;;;7.30;94.40;;;;;;9974877;28;20034;-67
2022/02/15 07:09:48;;;;;;;2.17;1.50;;;7.30;94.40;;;;;;9977173;28;20397;-69
2022/02/15 07:14:38;;;;;;;2.15;1.50;;;7.30;94.60;;;;;;9977522;28;20030;-68
2022/02/15 07:19:32;;;;;;;2.33;1.70;;;7.30;94.50;;;;;;9975701;28;20034;-68
2022/02/15 07:24:23;;;;;;;2.97;1.60;;;7.30;94.50;;;;;;9965898;28;20038;-67
2022/02/15 07:29:14;;;;;;;3.78;1.65;;;7.20;94.60;;;;;;9975266;28;20484;-68
2022/02/15 07:34:04;;;;;;;2.47;1.58;;;7.20;94.60;;;;;;9974949;28;20026;-61
2022/02/15 07:38:55;;;;;;;6.47;2.10;;;7.30;94.60;;;;;;9974477;28;20061;-64
2022/02/15 07:43:46;;;;;;;4.03;2.13;;;7.40;94.50;;;;;;9973307;28;20038;-63
2022/02/15 07:48:36;;;;;;;3.90;1.88;;;7.40;94.40;;;;;;9971863;28;20455;-63
2022/02/15 07:53:27;;;;;;;2.75;2.17;;;7.50;94.40;;;;;;9973968;28;20065;-63
2022/02/15 07:58:18;;;;;;;5.10;2.45;;;7.60;94.50;;;;;;9971924;28;20026;-64
2022/02/15 08:03:10;;;;;;;5.43;3.25;;;7.70;94.60;;;;;;9972484;28;20085;-63
2022/02/15 08:08:01;;;;;;;4.32;2.63;;;7.80;94.60;;;;;;9973365;28;20030;-61
2022/02/15 08:12:57;;;;;;;4.32;2.47;;;7.90;94.50;;;;;;9972161;28;20037;-63
2022/02/15 08:17:48;;;;;;;4.03;1.73;;;7.90;94.40;;;;;;9972383;28;20378;-63
2022/02/15 08:22:39;;;;;;;2.65;1.67;;;7.80;94.50;;;;;;9973496;28;20134;-62
2022/02/15 08:27:30;;;;;;;2.92;2.20;;;7.80;94.60;;;;;;9973123;28;20417;-67
2022/02/15 08:32:20;;;;;;;2.50;2.03;;;8.00;94.70;;;;;;9971622;28;20106;-67
2022/02/15 08:37:11;;;;;;;3.95;1.60;;;8.10;94.60;;;;;;9971667;28;20080;-63
2022/02/15 08:42:04;;;;;;;3.17;1.92;;;8.20;94.70;;;;;;9970947;28;20030;-62
2022/02/15 08:46:55;;;;;;;2.88;1.88;;;8.30;94.60;;;;;;9971901;28;20039;-62
2022/02/15 08:51:46;;;;;;;4.18;2.03;;;8.30;94.70;;;;;;9972676;28;20600;-64
2022/02/15 08:56:37;;;;;;;3.20;1.95;;;8.40;94.70;;;;;;9970508;28;20130;-65
2022/02/15 09:01:28;;;;;;;2.78;1.85;;;8.50;94.60;;;;;;9970716;28;20049;-63
2022/02/15 09:06:19;;;;;;;4.45;2.15;;;8.60;94.50;;;;;;9971596;28;20396;-62
2022/02/15 09:11:10;;;;;;;3.65;2.22;;;8.80;94.50;;;;;;9972617;28;20029;-65
2022/02/15 09:16:01;;;;;;;2.60;2.10;;;8.90;94.60;;;;;;9973314;28;20535;-64
2022/02/15 09:20:52;;;;;;;4.13;2.08;;;9.00;94.40;;;;;;9973156;28;20034;-64
2022/02/15 09:25:42;;;;;;;2.63;1.85;;;9.00;94.50;;;;;;9969604;28;20033;-63
2022/02/15 09:30:33;;;;;;;3.13;2.08;;;9.10;94.40;;;;;;9953348;28;20038;-64
2022/02/15 09:35:24;;;;;;;2.80;2.30;;;9.40;94.30;;;;;;9971594;28;20034;-64
2022/02/15 09:40:15;;;;;;;3.05;1.80;;;9.10;94.40;;;;;;9971226;28;20093;-68
2022/02/15 09:45:08;;;;;;;4.85;1.83;;;8.90;94.50;;;;;;9969596;28;20585;-63
2022/02/15 09:50:01;;;;;;;3.13;1.65;;;9.00;94.40;;;;;;9967786;28;20022;-63
2022/02/15 09:54:53;;;;;;;2.95;1.50;;;9.00;94.10;;;;;;9970957;28;20030;-63
2022/02/15 09:59:43;;;;;;;4.90;2.50;;;9.20;93.90;;;;;;9953167;28;20036;-64
2022/02/15 10:04:34;;;;;;;2.75;1.58;;;9.40;93.70;;;;;;9968911;28;20054;-64
2022/02/15 10:09:27;;;;;;;5.15;1.80;;;9.50;93.50;;;;;;9969545;28;20050;-65
2022/02/15 10:14:22;;;;;;;3.90;1.48;;;9.50;93.60;;;;;;9976455;28;20038;-68
2022/02/15 10:19:21;;;;;;;3.22;2.15;;;9.30;93.60;;;;;;9977029;28;20105;-63
2022/02/15 10:24:15;;;;;;;1.83;1.15;;;9.30;93.40;;;;;;9976595;28;20574;-62
2022/02/15 10:29:06;;;;;;;3.97;1.60;;;9.30;93.30;;;;;;9975806;28;20032;-64
2022/02/15 10:34:04;;;;;;;2.85;2.00;;;9.40;93.00;;;;;;9977037;28;20675;-63
2022/02/15 10:38:57;;;;;;;3.25;1.33;;;9.40;92.50;;;;;;9977578;28;20685;-63
2022/02/15 10:43:55;;;;;;;1.38;1.20;;;9.50;92.40;;;;;;9974353;28;20043;-62
2022/02/15 10:48:47;;;;;;;2.20;1.25;;;9.50;92.40;;;;;;9975339;28;20532;-68
2022/02/15 10:53:38;;;;;;;2.35;1.10;;;9.60;92.20;;;;;;9961416;28;20550;-63
2022/02/15 10:58:29;;;;;;;1.95;1.10;;;9.60;92.10;;;;;;9976874;28;20034;-63
2022/02/15 11:03:23;;;;;;;2.92;1.08;;;9.60;92.00;;;;;;9975463;28;20038;-65
2022/02/15 11:08:18;;;;;;;2.10;1.02;;;9.40;92.00;;;;;;9952776;28;20026;-68
2022/02/15 11:13:09;;;;;;;2.72;1.48;;;9.20;92.00;;;;;;9977898;28;20048;-61
2022/02/15 11:18:04;;;;;;;2.70;1.05;;;8.90;91.90;;;;;;9977531;28;20041;-61
2022/02/15 11:22:58;;;;;;;2.22;0.90;;;8.90;92.10;;;;;;9974049;28;20043;-61
2022/02/15 11:27:50;;;;;;;3.72;1.63;;;9.00;92.10;;;;;;9974529;28;20135;-61
2022/02/15 11:32:43;;;;;;;1.85;0.77;;;9.10;91.90;;;;;;9976611;28;20061;-61
2022/02/15 11:37:34;;;;;;;1.10;0.70;;;9.30;92.00;;;;;;9974502;28;20088;-69
2022/02/15 11:42:25;;;;;;;2.13;1.02;;;9.40;92.10;;;;;;9976005;28;20092;-60
2022/02/15 11:47:24;;;;;;;0.80;0.80;;;9.30;92.10;;;;;;9974121;28;20080;-65
2022/02/15 11:52:15;;;;;;;2.10;1.00;;;9.40;92.00;;;;;;9972619;28;20042;-63
2022/02/15 11:57:06;;;;;;;1.52;0.47;;;9.50;91.80;;;;;;9973491;28;20025;-65
2022/02/15 12:02:01;;;;;;;0.65;0.50;;;9.40;91.80;;;;;;9974939;28;20050;-63
2022/02/15 12:06:52;;;;;;;1.02;0.50;;;9.50;91.70;;;;;;9972639;28;20050;-62
2022/02/15 12:11:46;;;;;;;2.22;1.30;;;9.90;91.50;;;;;;9978875;28;20037;-65
2022/02/15 12:16:47;;;;;;;0.88;0.70;;;10.40;91.20;;;;;;9973126;28;20497;-65
2022/02/15 12:21:41;;;;;;;1.73;1.05;;;10.80;90.90;;;;;;9969456;28;20042;-64
2022/02/15 12:26:32;;;;;;;1.45;0.93;;;11.00;90.60;;;;;;9969582;28;20520;-65
2022/02/15 12:31:25;;;;;;;1.75;1.00;;;10.70;90.80;;;;;;9973066;28;20034;-65
2022/02/15 12:36:16;;;;;;;2.13;1.45;;;10.60;90.80;;;;;;9975360;28;20117;-64
2022/02/15 12:41:16;;;;;;;4.40;1.20;;;10.50;90.50;;;;;;9977224;28;20122;-64
2022/02/15 12:46:06;;;;;;;1.75;1.02;;;10.60;90.50;;;;;;9972541;28;20023;-67
2022/02/15 12:50:57;;;;;;;1.88;1.08;;;10.40;90.40;;;;;;9971937;28;20023;-64
2022/02/15 12:55:50;;;;;;;2.47;1.08;;;10.30;90.20;;;;;;9953238;28;20037;-65
2022/02/15 13:00:42;;;;;;;1.35;0.90;;;10.00;90.10;;;;;;9954191;28;20137;-68
2022/02/15 13:05:34;;;;;;;1.42;1.10;;;9.70;89.90;;;;;;9975276;28;20037;-64
2022/02/15 13:10:26;;;;;;;2.03;1.05;;;9.60;89.40;;;;;;9974263;28;20030;-65
2022/02/15 13:15:20;;;;;;;1.90;0.90;;;9.60;89.20;;;;;;9971747;28;20397;-66
2022/02/15 13:20:17;;;;;;;1.38;0.80;;;9.60;89.00;;;;;;9971522;28;20068;-66
2022/02/15 13:25:07;;;;;;;2.30;1.13;;;9.60;88.80;;;;;;9968819;28;20034;-67
2022/02/15 13:30:17;;;;;;;1.27;0.90;;;9.50;89.20;;;;;;9969868;28;20442;-65
2022/02/15 13:35:08;;;;;;;3.20;1.05;;;9.20;88.60;;;;;;9969786;28;20023;-62
2022/02/15 13:40:03;;;;;;;2.20;1.55;;;9.40;88.70;;;;;;9969419;28;20038;-66
2022/02/15 13:44:55;;;;;;;2.13;1.48;;;10.00;88.80;;;;;;9970730;28;20136;-67
2022/02/15 13:49:46;;;;;;;2.92;1.10;;;11.40;90.00;;;;;;9978930;28;20306;-66
2022/02/15 13:54:37;;;;;;;1.50;0.82;;;12.10;90.50;;;;;;9961138;28;20034;-65
2022/02/15 13:59:27;;;;;;;2.17;1.15;;;11.60;90.00;;;;;;9979448;28;20394;-66
2022/02/15 14:04:24;;;;;;;1.30;0.90;;;11.30;88.90;;;;;;9977135;28;20531;-67
2022/02/15 14:09:14;;;;;;;2.35;1.13;;;10.70;88.10;;;;;;9959762;28;20026;-67
2022/02/15 14:14:05;;;;;;;1.92;1.40;;;11.10;86.80;;;;;;9977366;28;20092;-65
2022/02/15 14:18:56;;;;;;;1.98;0.95;;;11.60;85.20;;;;;;9976015;28;20405;-67
2022/02/15 14:23:47;;;;;;;2.50;0.90;;;11.60;84.30;;;;;;9976474;28;20034;-65
2022/02/15 14:28:38;;;;;;;3.35;1.10;;;11.00;85.10;;;;;;9976663;28;20026;-66
2022/02/15 14:33:29;;;;;;;0.88;0.60;;;10.70;85.50;;;;;;9958736;28;20050;-64
2022/02/15 14:38:23;;;;;;;2.20;0.75;;;10.60;84.80;;;;;;9976636;28;20063;-64
2022/02/15 14:43:15;;;;;;;1.25;0.50;;;10.30;85.00;;;;;;9958456;28;20042;-66
2022/02/15 14:48:06;;;;;;;1.25;0.68;;;10.30;84.60;;;;;;9973651;28;20029;-65
2022/02/15 14:52:58;;;;;;;1.80;0.88;;;10.30;84.30;;;;;;9977257;28;20154;-65
2022/02/15 14:57:49;;;;;;;1.40;1.13;;;10.40;83.80;;;;;;9977566;28;20109;-63
2022/02/15 15:02:40;;;;;;;2.85;0.70;;;10.30;83.50;;;;;;9977186;28;20130;-62
2022/02/15 15:07:31;;;;;;;1.27;0.73;;;10.40;83.60;;;;;;9977521;28;20022;-62
2022/02/15 15:12:22;;;;;;;0.75;0.60;;;10.60;82.90;;;;;;9976640;28;20034;-69
2022/02/15 15:17:13;;;;;;;1.40;0.60;;;10.60;82.70;;;;;;9975191;28;20088;-69
2022/02/15 15:22:04;;;;;;;1.15;0.65;;;10.80;82.10;;;;;;9974373;28;20038;-66
2022/02/15 15:26:55;;;;;;;1.33;0.70;;;10.40;82.40;;;;;;9975806;28;20098;-66
2022/02/15 15:31:46;;;;;;;1.13;0.60;;;10.20;82.60;;;;;;9975043;28;20121;-66
2022/02/15 15:36:37;;;;;;;1.77;0.70;;;10.10;82.30;;;;;;9976416;28;20927;-63
2022/02/15 15:41:28;;;;;;;1.15;0.70;;;10.10;81.80;;;;;;9976333;28;20108;-64
2022/02/15 15:46:18;;;;;;;1.05;0.90;;;10.10;81.90;;;;;;9977275;28;20038;-63
2022/02/15 15:51:10;;;;;;;2.35;0.40;;;10.00;81.50;;;;;;9975033;28;20034;-64
2022/02/15 15:56:01;;;;;;;0.50;0.50;;;9.90;81.40;;;;;;9976235;28;20027;-64
2022/02/15 16:00:52;;;;;;;2.35;0.60;;;9.80;81.20;;;;;;9964671;28;20405;-66
2022/02/15 16:05:43;;;;;;;1.55;0.77;;;9.70;81.10;;;;;;9978019;28;20022;-63
2022/02/15 16:10:33;;;;;;;1.67;0.63;;;9.80;81.00;;;;;;9980367;28;20065;-64
2022/02/15 16:15:24;;;;;;;2.22;0.60;;;9.60;80.80;;;;;;9983698;28;20114;-62
2022/02/15 16:20:18;;;;;;;1.23;0.65;;;9.50;81.00;;;;;;9976632;28;20027;-66
2022/02/15 16:25:10;;;;;;;1.70;1.00;;;9.50;81.10;;;;;;9977952;28;20041;-64
2022/02/15 16:30:00;;;;;;;1.38;0.90;;;9.50;81.10;;;;;;9983994;28;20161;-64
2022/02/15 16:34:51;;;;;;;2.10;0.90;;;9.30;81.30;;;;;;9979461;28;20171;-62
2022/02/15 16:39:42;;;;;;;1.40;0.90;;;9.20;81.80;;;;;;9973736;28;20048;-63
2022/02/15 16:44:36;;;;;;;4.43;1.40;;;9.00;82.10;;;;;;9974111;28;20030;-67
2022/02/15 16:49:27;;;;;;;2.80;1.08;;;8.90;82.40;;;;;;9973528;28;20022;-62
2022/02/15 16:54:18;;;;;;;1.70;1.08;;;8.80;82.60;;;;;;9975192;28;20121;-63
2022/02/15 16:59:09;;;;;;;1.95;0.68;;;8.60;82.80;;;;;;9977229;28;20493;-62
2022/02/15 17:04:00;;;;;;;1.75;0.90;;;8.50;82.90;;;;;;9980388;28;20046;-67
2022/02/15 17:08:51;;;;;;;1.02;0.88;;;8.40;83.40;;;;;;9972621;28;20516;-62
2022/02/15 17:13:42;;;;;;;2.70;1.35;;;8.30;83.40;;;;;;9955125;28;20117;-68
2022/02/15 17:18:35;;;;;;;2.15;1.05;;;8.30;83.60;;;;;;9968413;28;20552;-62
2022/02/15 17:23:25;;;;;;;1.75;1.00;;;8.20;83.80;;;;;;9972672;28;20059;-63
2022/02/15 17:28:16;;;;;;;3.90;1.30;;;8.20;83.80;;;;;;9971579;28;20505;-63
2022/02/15 17:33:06;;;;;;;4.20;1.02;;;8.20;84.00;;;;;;9970246;28;20026;-62
2022/02/15 17:37:59;;;;;;;4.00;1.20;;;8.10;84.30;;;;;;9970916;28;20046;-62
2022/02/15 17:42:50;;;;;;;1.83;1.13;;;8.10;84.20;;;;;;9971010;28;20041;-62
2022/02/15 17:47:41;;;;;;;2.97;1.15;;;8.10;84.30;;;;;;9971526;28;20023;-64
2022/02/15 17:52:31;;;;;;;3.22;1.15;;;8.10;84.40;;;;;;9971217;28;20026;-64
2022/02/15 17:57:24;;;;;;;3.15;1.60;;;8.00;84.50;;;;;;9971560;28;20092;-64
2022/02/15 18:02:14;;;;;;;5.65;1.45;;;7.90;84.70;;;;;;9973065;28;20129;-64
2022/02/15 18:07:05;;;;;;;2.45;1.48;;;8.00;84.70;;;;;;9971482;28;20156;-65
2022/02/15 18:11:56;;;;;;;2.75;1.23;;;7.90;84.80;;;;;;9972069;28;20123;-65
2022/02/15 18:16:47;;;;;;;2.95;0.80;;;7.90;84.90;;;;;;9971300;28;20161;-63
2022/02/15 18:21:39;;;;;;;4.43;1.00;;;7.80;84.90;;;;;;9972340;28;20046;-65
2022/02/15 18:26:30;;;;;;;2.17;1.60;;;7.80;85.00;;;;;;9971603;28;20041;-66
2022/02/15 18:31:21;;;;;;;3.80;1.20;;;7.80;85.10;;;;;;9973456;28;20551;-66
2022/02/15 18:36:12;;;;;;;1.58;1.10;;;7.70;85.30;;;;;;9977590;28;20046;-66
2022/02/15 18:41:03;;;;;;;2.58;1.70;;;7.70;85.50;;;;;;9977479;28;20070;-65
2022/02/15 18:45:53;;;;;;;2.35;1.23;;;7.70;85.70;;;;;;9969807;28;20022;-65
2022/02/15 18:50:44;;;;;;;7.30;2.88;;;7.70;85.60;;;;;;9952285;28;20030;-67
2022/02/15 18:55:35;;;;;;;5.45;2.10;;;7.70;85.70;;;;;;9977937;28;20045;-68
2022/02/15 19:00:26;;;;;;;3.95;2.05;;;7.70;85.90;;;;;;9971717;28;20053;-66
2022/02/15 19:05:16;;;;;;;3.55;1.85;;;7.60;86.10;;;;;;9976745;28;20173;-65
2022/02/15 19:10:10;;;;;;;2.03;1.65;;;7.50;86.60;;;;;;9977023;28;20014;-65
2022/02/15 19:15:01;;;;;;;1.65;1.10;;;7.40;86.90;;;;;;9976078;28;20034;-64
2022/02/15 19:19:52;;;;;;;1.63;1.30;;;7.40;86.90;;;;;;9976332;28;20041;-67
2022/02/15 19:24:42;;;;;;;5.10;1.42;;;7.40;86.90;;;;;;9977417;28;20042;-68
2022/02/15 19:29:33;;;;;;;1.60;1.17;;;7.40;86.90;;;;;;9962997;28;20019;-68
2022/02/15 19:34:24;;;;;;;3.10;1.60;;;7.30;87.40;;;;;;9978298;28;20086;-66
2022/02/15 19:39:15;;;;;;;1.55;1.05;;;7.20;87.30;;;;;;9976440;28;20599;-67
2022/02/15 19:44:07;;;;;;;1.65;1.35;;;7.20;87.50;;;;;;9974055;28;20046;-65
2022/02/15 19:48:59;;;;;;;3.70;1.05;;;7.20;87.50;;;;;;9975497;28;20029;-68
2022/02/15 19:53:50;;;;;;;3.38;1.25;;;7.20;87.90;;;;;;9975954;28;20038;-75
2022/02/15 19:58:41;;;;;;;2.92;1.83;;;7.20;88.30;;;;;;9979581;28;20069;-72
2022/02/15 20:03:32;;;;;;;1.35;1.17;;;7.30;88.30;;;;;;9973615;28;20082;-69
2022/02/15 20:08:23;;;;;;;2.90;1.50;;;7.40;88.20;;;;;;9974076;28;20025;-69
2022/02/15 20:13:13;;;;;;;2.53;1.58;;;7.20;88.60;;;;;;9974231;28;20030;-66
2022/02/15 20:18:05;;;;;;;2.13;1.50;;;7.20;88.60;;;;;;9973755;28;20027;-72
2022/02/15 20:22:57;;;;;;;1.95;1.10;;;7.20;88.80;;;;;;9956911;28;20026;-74
2022/02/15 20:27:50;;;;;;;1.45;1.02;;;7.20;88.90;;;;;;9972489;28;20109;-74
2022/02/15 20:32:41;;;;;;;3.63;1.73;;;7.20;89.00;;;;;;9973915;28;20049;-74
2022/02/15 20:37:31;;;;;;;2.33;1.30;;;7.20;89.10;;;;;;9975573;28;20049;-74
2022/02/15 20:42:23;;;;;;;3.00;1.63;;;7.10;89.30;;;;;;9977865;28;20046;-72
2022/02/15 20:47:14;;;;;;;5.53;1.90;;;7.20;89.50;;;;;;9975549;28;20034;-75
2022/02/15 20:52:07;;;;;;;2.05;1.30;;;7.20;89.60;;;;;;9973131;28;20381;-74
2022/02/15 20:56:58;;;;;;;2.55;1.40;;;7.30;89.60;;;;;;9982051;28;20025;-77
2022/02/15 21:01:48;;;;;;;3.97;1.20;;;7.30;89.50;;;;;;9960009;28;20175;-75
2022/02/15 21:06:40;;;;;;;2.22;1.38;;;7.30;89.40;;;;;;9975485;28;20030;-74
2022/02/15 21:11:30;;;;;;;2.47;1.17;;;7.30;89.50;;;;;;9975637;28;20034;-72
2022/02/15 21:16:21;;;;;;;2.47;1.17;;;7.40;89.40;;;;;;9974774;28;20046;-75
2022/02/15 21:21:12;;;;;;;3.10;1.65;;;7.50;89.20;;;;;;9975067;28;20093;-73
2022/02/15 21:26:02;;;;;;;2.25;1.23;;;7.50;89.20;;;;;;9976337;28;20018;-75
2022/02/15 21:30:53;;;;;;;1.60;1.02;;;7.50;89.20;;;;;;9957829;28;20022;-74
2022/02/15 21:35:48;;;;;;;3.42;1.23;;;7.50;89.20;;;;;;9973535;28;20070;-72
2022/02/15 21:40:38;;;;;;;2.40;1.25;;;7.50;89.10;;;;;;9961975;28;20037;-70
2022/02/15 21:45:29;;;;;;;2.17;1.00;;;7.50;89.10;;;;;;9974317;28;20041;-72
2022/02/15 21:50:20;;;;;;;1.77;1.00;;;7.50;89.10;;;;;;9989365;28;20046;-79
2022/02/15 21:55:12;;;;;;;3.83;1.13;;;7.40;89.10;;;;;;9959651;28;20128;-78
2022/02/15 22:00:05;;;;;;;1.95;1.00;;;7.50;89.30;;;;;;9977611;28;20018;-78
2022/02/15 22:04:56;;;;;;;2.17;1.20;;;7.40;89.30;;;;;;9976626;28;20408;-79
2022/02/15 22:09:47;;;;;;;1.30;1.20;;;7.40;89.20;;;;;;9981588;28;20109;-73
2022/02/15 22:14:40;;;;;;;2.10;1.23;;;7.40;89.20;;;;;;9980187;28;20033;-77
2022/02/15 22:19:31;;;;;;;1.33;0.77;;;7.40;89.10;;;;;;9958601;28;20023;-75
2022/02/15 22:24:22;;;;;;;2.25;1.23;;;7.40;89.10;;;;;;9979032;28;21521;-76
2022/02/15 22:29:12;;;;;;;2.92;1.02;;;7.40;89.00;;;;;;9977572;28;20042;-77
2022/02/15 22:34:03;;;;;;;0.90;0.65;;;7.40;88.80;;;;;;9976643;28;20105;-73
2022/02/15 22:38:53;;;;;;;2.75;1.17;;;7.40;89.00;;;;;;9971770;28;20113;-76
2022/02/15 22:43:45;;;;;;;2.67;0.95;;;7.30;88.90;;;;;;9977556;28;20062;-75
2022/02/15 22:48:37;;;;;;;2.28;1.08;;;7.40;88.90;;;;;;9978886;28;20054;-75
2022/02/15 22:53:28;;;;;;;0.98;0.88;;;7.30;88.90;;;;;;9967770;28;20109;-73
2022/02/15 22:58:18;;;;;;;1.65;1.20;;;7.40;88.90;;;;;;9976355;28;20116;-72
2022/02/15 23:03:10;;;;;;;2.72;1.15;;;7.40;88.80;;;;;;9980504;28;20279;-73
2022/02/15 23:18:21;;;;;;;3.00;1.10;;;7.50;88.80;;;;;;9976829;28;20121;-73
2022/02/15 23:23:15;;;;;;;1.60;1.08;;;7.40;88.90;;;;;;9975953;28;20189;-74
2022/02/15 23:28:06;;;;;;;2.97;1.15;;;7.40;88.90;;;;;;9977013;28;20266;-74
2022/02/15 23:32:57;;;;;;;2.83;1.00;;;7.40;88.90;;;;;;9958949;28;20038;-73
2022/02/15 23:37:48;;;;;;;1.55;0.80;;;7.40;88.90;;;;;;9978744;28;20030;-74
2022/02/15 23:42:40;;;;;;;0.88;0.75;;;7.50;88.90;;;;;;9977614;28;20038;-75
2022/02/15 23:47:31;;;;;;;1.27;0.70;;;7.40;88.70;;;;;;9978118;28;20031;-74
2022/02/15 23:52:21;;;;;;;4.20;0.98;;;7.40;88.80;;;;;;9979250;28;20040;-75
2022/02/15 23:57:12;;;;;;;1.80;0.90;;;6.70;88.30;;;;;;9975589;28;20052;-73
